createdAt,value
2023-05-05T00:03:45.772Z,2.80
2023-05-05T00:08:47.797Z,3.90
2023-05-05T00:13:49.952Z,2.00
2023-05-05T00:18:51.965Z,2.00
2023-05-05T00:23:54.443Z,2.00
2023-05-05T00:28:56.749Z,1.70
2023-05-05T00:33:58.703Z,1.90
2023-05-05T00:39:00.722Z,2.00
2023-05-05T00:44:03.097Z,1.80
2023-05-05T00:49:05.025Z,2.20
2023-05-05T00:54:06.984Z,1.90
2023-05-05T00:59:09.030Z,2.00
2023-05-05T01:04:11.051Z,2.20
2023-05-05T01:09:42.440Z,2.90
2023-05-05T01:14:51.797Z,1.70
2023-05-05T01:20:21.179Z,1.50
2023-05-05T01:25:57.323Z,1.90
2023-05-05T01:31:23.692Z,1.90
2023-05-05T01:36:35.862Z,2.50
2023-05-05T01:41:41.358Z,1.70
2023-05-05T01:46:43.458Z,2.20
2023-05-05T01:51:48.101Z,3.00
2023-05-05T01:56:51.126Z,2.10
2023-05-05T02:01:55.150Z,2.30
2023-05-05T02:07:01.433Z,2.80
2023-05-05T02:12:05.501Z,2.40
2023-05-05T02:17:08.602Z,2.10
2023-05-05T02:22:11.914Z,2.30
2023-05-05T02:27:18.230Z,2.40
2023-05-05T02:32:40.259Z,2.10
2023-05-05T02:37:48.162Z,1.60
2023-05-05T02:42:54.087Z,1.90
2023-05-05T02:47:56.077Z,1.50
2023-05-05T02:52:59.852Z,1.50
2023-05-05T02:58:08.632Z,1.60
2023-05-05T03:03:28.175Z,1.50
2023-05-05T03:08:49.122Z,1.70
2023-05-05T03:14:00.937Z,1.20
2023-05-05T03:19:04.529Z,1.50
2023-05-05T03:24:18.059Z,1.60
2023-05-05T03:29:20.256Z,1.50
2023-05-05T03:34:22.174Z,1.00
2023-05-05T03:39:24.224Z,1.20
2023-05-05T03:44:26.647Z,1.60
2023-05-05T03:49:28.602Z,1.30
2023-05-05T03:54:30.948Z,1.40
2023-05-05T03:59:33.427Z,1.40
2023-05-05T04:04:35.601Z,1.30
2023-05-05T04:09:44.188Z,1.60
2023-05-05T04:14:46.229Z,1.40
2023-05-05T04:19:48.199Z,1.30
2023-05-05T04:24:50.353Z,2.10
2023-05-05T04:29:52.360Z,1.20
2023-05-05T04:34:54.398Z,1.20
2023-05-05T04:39:56.321Z,1.70
2023-05-05T04:44:58.298Z,1.60
2023-05-05T04:50:00.712Z,1.50
2023-05-05T04:55:03.438Z,1.90
2023-05-05T05:00:09.303Z,1.60
2023-05-05T05:05:11.417Z,2.00
2023-05-05T05:10:13.541Z,1.30
2023-05-05T05:15:15.508Z,2.30
2023-05-05T05:20:17.646Z,1.80
2023-05-05T05:25:19.705Z,1.30
2023-05-05T05:30:21.874Z,1.10
2023-05-05T05:35:23.871Z,1.40
2023-05-05T05:40:26.460Z,1.70
2023-05-05T05:45:28.727Z,1.40
2023-05-05T05:50:30.858Z,1.40
2023-05-05T05:55:33.596Z,1.00
2023-05-05T06:00:36.074Z,1.30
2023-05-05T06:05:38.081Z,1.90
2023-05-05T06:10:40.911Z,1.40
2023-05-05T06:15:43.166Z,1.70
2023-05-05T06:20:48.608Z,1.20
2023-05-05T06:25:50.603Z,1.70
2023-05-05T06:30:53.125Z,1.40
2023-05-05T06:35:56.007Z,1.40
2023-05-05T06:40:58.228Z,1.80
2023-05-05T06:46:00.525Z,1.60
2023-05-05T06:51:03.542Z,1.30
2023-05-05T06:56:05.961Z,1.40
2023-05-05T07:01:08.230Z,1.40
2023-05-05T07:06:10.985Z,1.30
2023-05-05T07:11:12.969Z,1.50
2023-05-05T07:16:15.223Z,1.50
2023-05-05T07:21:18.448Z,1.60
2023-05-05T07:26:22.424Z,1.40
2023-05-05T07:31:26.134Z,1.50
2023-05-05T07:36:28.140Z,1.50
2023-05-05T07:41:30.830Z,1.10
2023-05-05T07:46:33.850Z,1.30
2023-05-05T07:51:37.004Z,1.30
2023-05-05T07:56:40.024Z,1.20
2023-05-05T08:01:42.088Z,1.30
2023-05-05T08:06:44.224Z,1.20
2023-05-05T08:11:46.206Z,1.60
2023-05-05T08:16:48.097Z,1.20
2023-05-05T08:21:50.379Z,1.20
2023-05-05T08:26:52.399Z,1.40
2023-05-05T08:31:55.122Z,1.50
2023-05-05T08:36:57.508Z,1.10
2023-05-05T08:42:36.951Z,1.50
2023-05-05T08:47:42.775Z,1.30
2023-05-05T08:52:51.380Z,1.20
2023-05-05T08:57:58.211Z,1.10
2023-05-05T09:03:04.768Z,1.20
2023-05-05T09:08:12.102Z,1.00
2023-05-05T09:18:39.134Z,1.30
2023-05-05T09:24:08.081Z,1.70
2023-05-05T09:29:21.529Z,1.30
2023-05-05T09:34:23.927Z,1.30
2023-05-05T09:39:26.126Z,0.80
2023-05-05T09:44:35.975Z,0.90
2023-05-05T09:49:38.474Z,1.20
2023-05-05T09:54:41.939Z,1.00
2023-05-05T09:59:58.204Z,1.00
2023-05-05T10:05:16.835Z,1.20
2023-05-05T10:10:19.055Z,1.20
2023-05-05T10:15:22.133Z,1.20
2023-05-05T10:20:26.609Z,1.00
2023-05-05T10:25:33.362Z,0.90
2023-05-05T10:30:43.519Z,1.10
2023-05-05T10:35:49.734Z,1.00
2023-05-05T10:40:53.285Z,1.20
2023-05-05T10:45:56.583Z,1.10
2023-05-05T10:51:13.171Z,1.00
2023-05-05T10:56:40.057Z,1.20
2023-05-05T11:01:42.152Z,0.90
2023-05-05T11:07:11.852Z,0.90
2023-05-05T11:12:16.901Z,1.00
2023-05-05T11:17:47.637Z,1.00
2023-05-05T11:23:02.071Z,1.10
2023-05-05T11:28:14.417Z,0.90
2023-05-05T11:33:29.703Z,0.70
2023-05-05T11:38:43.953Z,1.10
2023-05-05T11:43:46.168Z,1.00
2023-05-05T11:48:52.031Z,1.00
2023-05-05T11:53:54.088Z,0.90
2023-05-05T11:59:10.369Z,0.60
2023-05-05T12:04:16.147Z,1.10
2023-05-05T12:09:20.424Z,0.90
2023-05-05T12:14:24.933Z,0.70
2023-05-05T12:19:33.373Z,0.80
2023-05-05T12:24:35.747Z,1.00
2023-05-05T12:29:37.868Z,0.90
2023-05-05T12:34:39.981Z,1.10
2023-05-05T12:39:42.099Z,0.90
2023-05-05T12:44:44.513Z,0.60
2023-05-05T12:49:51.255Z,0.70
2023-05-05T12:54:58.857Z,1.00
2023-05-05T13:00:13.533Z,0.90
2023-05-05T13:05:15.713Z,0.50
2023-05-05T13:10:17.660Z,0.80
2023-05-05T13:15:19.582Z,0.80
2023-05-05T13:20:21.669Z,0.60
2023-05-05T13:25:23.950Z,0.50
2023-05-05T13:30:26.004Z,0.60
2023-05-05T13:35:28.441Z,0.80
2023-05-05T13:40:30.408Z,0.50
2023-05-05T13:45:33.223Z,0.60
2023-05-05T13:50:35.147Z,0.70
2023-05-05T13:55:37.798Z,0.70
2023-05-05T14:00:40.131Z,0.90
2023-05-05T14:05:42.541Z,1.10
2023-05-05T14:10:47.174Z,0.80
2023-05-05T14:15:52.992Z,0.80
2023-05-05T14:20:54.922Z,0.70
2023-05-05T14:25:57.285Z,0.80
2023-05-05T14:30:59.245Z,0.60
2023-05-05T14:36:01.233Z,0.80
2023-05-05T14:41:03.572Z,1.00
2023-05-05T14:46:07.013Z,0.80
2023-05-05T14:51:09.258Z,0.90
2023-05-05T14:56:11.234Z,0.70
2023-05-05T15:01:13.234Z,0.50
2023-05-05T15:06:16.149Z,0.70
2023-05-05T15:11:18.087Z,0.70
2023-05-05T15:16:20.746Z,0.70
2023-05-05T15:21:22.766Z,0.70
2023-05-05T15:26:24.993Z,0.60
2023-05-05T15:31:27.204Z,1.40
2023-05-05T15:36:29.458Z,0.80
2023-05-05T15:41:34.312Z,0.80
2023-05-05T15:46:36.872Z,0.70
2023-05-05T15:51:38.930Z,0.60
2023-05-05T15:56:40.890Z,0.70
2023-05-05T16:01:43.078Z,0.60
2023-05-05T16:06:45.899Z,0.60
2023-05-05T16:11:48.041Z,0.60
2023-05-05T16:16:50.060Z,0.90
2023-05-05T16:21:56.168Z,0.90
2023-05-05T16:26:58.166Z,0.70
2023-05-05T16:32:01.105Z,0.80
2023-05-05T16:37:03.136Z,0.80
2023-05-05T16:42:06.056Z,1.10
2023-05-05T16:47:08.044Z,1.10
2023-05-05T16:52:10.980Z,1.10
2023-05-05T16:57:13.384Z,0.90
2023-05-05T17:02:15.891Z,0.70
2023-05-05T17:07:17.958Z,1.10
2023-05-05T17:12:20.035Z,1.00
2023-05-05T17:17:22.061Z,1.00
2023-05-05T17:22:24.188Z,1.10
2023-05-05T17:27:26.355Z,1.20
2023-05-05T17:32:28.622Z,0.90
2023-05-05T17:37:32.082Z,1.10
2023-05-05T17:42:34.757Z,1.00
2023-05-05T17:47:37.085Z,1.10
2023-05-05T17:52:40.262Z,0.90
2023-05-05T17:57:42.360Z,1.10
2023-05-05T18:02:44.935Z,1.10
2023-05-05T18:07:46.988Z,0.70
2023-05-05T18:12:49.095Z,1.40
2023-05-05T18:17:51.318Z,1.10
2023-05-05T18:22:53.501Z,1.50
2023-05-05T18:27:55.580Z,1.10
2023-05-05T18:32:58.205Z,0.80
2023-05-05T18:38:00.442Z,1.00
2023-05-05T18:43:02.421Z,0.80
2023-05-05T18:48:04.720Z,1.20
2023-05-05T18:53:06.713Z,1.60
2023-05-05T18:58:08.900Z,2.00
2023-05-05T19:03:11.526Z,1.80
2023-05-05T19:08:13.972Z,1.90
2023-05-05T19:13:16.219Z,1.10
2023-05-05T19:18:18.196Z,1.40
2023-05-05T19:23:20.308Z,1.60
2023-05-05T19:28:22.402Z,1.90
2023-05-05T19:33:24.443Z,2.40
2023-05-05T19:38:26.469Z,1.80
2023-05-05T19:43:28.567Z,1.80
2023-05-05T19:48:31.224Z,1.70
2023-05-05T19:53:33.308Z,1.70
2023-05-05T19:58:55.769Z,1.60
2023-05-05T20:03:58.008Z,1.60
2023-05-05T20:09:00.183Z,1.60
2023-05-05T20:14:02.291Z,1.50
2023-05-05T20:19:05.716Z,2.10
2023-05-05T20:24:08.634Z,2.00
2023-05-05T20:29:11.007Z,2.40
2023-05-05T20:34:13.520Z,2.10
2023-05-05T20:39:16.957Z,2.10
2023-05-05T20:44:18.968Z,1.90
2023-05-05T20:49:20.901Z,1.50
2023-05-05T20:54:23.091Z,1.80
2023-05-05T20:59:27.571Z,1.70
2023-05-05T21:04:29.572Z,1.70
2023-05-05T21:09:31.537Z,1.60
2023-05-05T21:14:33.611Z,1.80
2023-05-05T21:19:35.536Z,2.00
2023-05-05T21:24:38.850Z,1.80
2023-05-05T21:29:40.932Z,2.10
2023-05-05T21:34:42.850Z,2.00
2023-05-05T21:39:44.855Z,1.90
2023-05-05T21:44:46.791Z,2.00
2023-05-05T21:49:48.816Z,2.00
2023-05-05T21:54:50.999Z,1.90
2023-05-05T21:59:53.049Z,2.60
2023-05-05T22:04:55.144Z,2.50
2023-05-05T22:09:57.178Z,2.00
2023-05-05T22:14:59.106Z,1.60
2023-05-05T22:20:01.153Z,2.10
2023-05-05T22:25:03.312Z,2.70
2023-05-05T22:30:06.186Z,2.10
2023-05-05T22:35:09.526Z,2.50
2023-05-05T22:40:13.270Z,2.20
2023-05-05T22:45:15.505Z,2.50
2023-05-05T22:50:17.827Z,2.40
2023-05-05T22:55:20.015Z,2.50
2023-05-05T23:00:22.503Z,2.00
2023-05-05T23:05:24.479Z,2.50
2023-05-05T23:10:28.609Z,2.50
2023-05-05T23:15:30.556Z,2.10
2023-05-05T23:20:32.745Z,2.30
2023-05-05T23:25:34.862Z,2.10
2023-05-05T23:30:36.847Z,2.70
2023-05-05T23:35:42.983Z,2.90
2023-05-05T23:40:45.029Z,2.40
2023-05-05T23:45:47.128Z,2.30
2023-05-05T23:50:49.186Z,2.60
2023-05-05T23:55:51.132Z,2.50
